ENSB/LYR METAR and TAF weather

Enter ICAO airport designator
Station Type Date Time Source
ENSB METAR 2020/07/08 00:50 UTC NOAA

ENSB 080050Z 10022KT 9999 -DZ FEW012 BKN038 06/02 Q0999 RMK WIND 1400FT 10015KT


Station Type Date Time Source
ENSB Decoded METAR 2020/07/08 00:50 UTC NOAA

Svalbard Lufthavn, Norway (ENSB) 78-15N 015-28E 29M
Jul 07, 2020 - 08:50 PM EDT / 2020.07.08 0050 UTC
Wind: from the E (100 degrees) at 25 MPH (22 KT):0
Visibility: greater than 7 mile(s):0
Sky conditions: mostly cloudy
Weather: light drizzle
Temperature: 42 F (6 C)
Dew Point: 35 F (2 C)
Relative Humidity: 75%
Pressure (altimeter): 29.50 in. Hg (0999 hPa)
ob: ENSB 080050Z 10022KT 9999 -DZ FEW012 BKN038 06/02 Q0999 RMK WIND 1400FT 10015KT
cycle: 1

Station Type Date Time Source
ENSB TAF 2020/07/07 18:57 UTC NOAA

TAF ENSB 071700Z 0718/0818 12008KT 9999 FEW015 BKN025
TEMPO 0718/0806 12020G30KT

Example: see airport list